KOPF/OPF METAR and TAF weather

Enter ICAO airport designator
Station Type Date Time Source
KOPF METAR 2021/09/28 15:53 UTC NOAA

KOPF 281553Z 07009KT 10SM SCT041 31/19 A3003 RMK AO2 SLP170 T03110189


Station Type Date Time Source
KOPF Decoded METAR 2021/09/28 15:53 UTC NOAA

MIAMI OPA LOCKA AIRPORT, FL, United States (KOPF) 25-54N 80-17W 16M
Sep 28, 2021 - 11:53 AM EDT / 2021.09.28 1553 UTC
Wind: from the ENE (070 degrees) at 10 MPH (9 KT):0
Visibility: 10 mile(s):0
Sky conditions: partly cloudy
Temperature: 88.0 F (31.1 C)
Dew Point: 66.0 F (18.9 C)
Relative Humidity: 48%
Pressure (altimeter): 30.03 in. Hg (1016 hPa)
ob: KOPF 281553Z 07009KT 10SM SCT041 31/19 A3003 RMK AO2 SLP170 T03110189
cycle: 16

Station Type Date Time Source
KOPF TAF 2021/09/28 15:36 UTC NOAA

TAF
AMD KOPF 281435Z 2815/2912 06010KT P6SM SCT035
FM290400 VRB05KT P6SM FEW030

Example: see airport list